Latest Weather Observations for Parafield

IDS60901

Issued at 6:01 am CST Thursday 16 August 2018 (issued every 10 minutes, with the page automatically refreshed every 10 minutes)

About weather observations | Map of Adelaide area stations | Latest observations for Adelaide area | Other Formats
Station Details ID: 023013 Name: PARAFIELD AIRPORT Lat: -34.80 Lon: 138.63 Height: 9.5 m
Data from the previous 72 hours. | See also: Recent months at Parafield
Date/Time
CST
Temp
°C
App
Temp
°C
Dew
Point
°C
Rel
Hum
%
Delta-T
°C
Wind Press
QNH
hPa
Press
MSL
hPa
Rain since
9am
mm
Dir  Spd
km/h
Gust
km/h
Spd
kts
Gust
kts
16/06:00am 4.7 1.4 4.7 100 0.0 NNE 11 13 6 7 1016.3 1016.3 1.4
16/05:30am 5.0 2.2 5.0 100 0.0 NNE 9 11 5 6 1016.3 1016.3 1.4
16/05:00am 4.7 1.4 4.7 100 0.0 NE 11 13 6 7 1016.1 1016.1 1.4
16/04:30am 5.1 1.5 5.1 100 0.0 NNE 13 15 7 8 1016.0 1016.0 1.4
16/04:00am 5.0 1.4 5.0 100 0.0 NE 13 15 7 8 1015.9 1015.9 1.4
16/03:30am 5.1 2.3 5.1 100 0.0 N 9 11 5 6 1015.7 1015.7 1.4
16/03:00am 4.6 1.7 4.6 100 0.0 ENE 9 11 5 6 1015.8 1015.8 1.4
16/02:30am 5.8 3.5 5.8 100 0.0 NE 7 11 4 6 1015.9 1015.9 1.4
16/02:00am 5.7 3.6 5.7 100 0.0 ESE 6 9 3 5 1016.1 1016.1 1.4
16/01:30am 5.3 2.9 5.3 100 0.0 NE 7 9 4 5 1016.0 1016.0 1.4
16/01:00am 5.3 4.2 5.3 100 0.0 CALM 0 0 0 0 1016.0 1016.0 1.4
16/12:30am 6.5 4.3 6.2 98 0.1 W 7 11 4 6 1015.8 1015.8 1.4
16/12:00am 7.8 5.9 7.4 97 0.2 W 7 11 4 6 1015.8 1015.8 1.2
 
Date/Time
CST
Temp
°C
App
Temp
°C
Dew
Point
°C
Rel
Hum
%
Delta-T
°C
Wind Press
QNH
hPa
Press
MSL
hPa
Rain since
9am
mm
Dir  Spd
km/h
Gust
km/h
Spd
kts
Gust
kts
15/11:30pm 8.5 5.9 7.9 96 0.3 W 11 13 6 7 1015.8 1015.8 1.2
15/11:00pm 8.9 6.0 8.0 94 0.4 W 13 15 7 8 1015.8 1015.8 1.2
15/10:30pm 9.6 6.8 8.4 92 0.6 W 13 15 7 8 1016.0 1016.0 1.2
15/10:00pm 9.9 6.2 8.0 88 0.9 W 17 20 9 11 1016.0 1016.0 1.2
15/09:30pm 9.8 6.6 8.6 92 0.6 W 15 20 8 11 1015.6 1015.6 1.2
15/09:00pm 9.8 6.9 8.1 89 0.8 W 13 15 7 8 1015.4 1015.4 1.2
15/08:30pm 10.4 7.0 9.2 92 0.6 W 17 24 9 13 1015.3 1015.3 1.2
15/08:00pm 10.0 7.0 9.4 96 0.3 W 15 20 8 11 1015.3 1015.3 1.2
15/07:30pm 9.9 6.9 9.3 96 0.3 WSW 15 19 8 10 1015.1 1015.1 1.2
15/07:00pm 9.4 7.5 8.9 97 0.2 WSW 9 11 5 6 1014.8 1014.8 1.2
15/06:30pm 10.1 6.7 9.3 95 0.4 WSW 17 20 9 11 1014.3 1014.3 1.2
15/06:22pm 10.2 6.5 9.4 95 0.4 WSW 19 24 10 13 1014.2 1014.2 1.2
15/06:11pm 10.7 5.7 9.6 93 0.6 WSW 26 44 14 24 1014.2 1014.2 1.2
15/06:05pm 10.8 6.9 9.4 91 0.7 WSW 20 44 11 24 1014.1 1014.1 1.0
15/06:00pm 11.2 8.5 10.4 95 0.4 WSW 15 19 8 10 1014.0 1014.0 0.2
15/05:30pm 10.9 7.6 9.7 92 0.6 WSW 17 20 9 11 1013.7 1013.7 0.2
15/05:00pm 12.4 6.3 8.1 75 2.1 W 30 50 16 27 1013.6 1013.6 0.0
15/04:30pm 13.9 7.9 8.5 70 2.7 W 30 48 16 26 1013.2 1013.2 0.0
15/04:28pm 13.8 7.7 8.2 69 2.8 W 30 48 16 26 1013.1 1013.1 0.0
15/04:00pm 13.3 8.5 9.0 75 2.2 W 24 32 13 17 1012.9 1012.9 0.0
15/03:35pm 12.1 6.5 10.3 89 0.9 WSW 30 48 16 26 1013.1 1013.1 0.0
15/03:30pm 12.2 6.0 10.1 87 1.1 WSW 33 48 18 26 1013.2 1013.2 0.0
15/03:00pm 13.7 8.0 9.7 77 2.1 WNW 30 43 16 23 1012.7 1012.7 0.0
15/02:30pm 13.9 7.6 8.9 72 2.5 WNW 32 43 17 23 1012.6 1012.6 0.0
15/02:00pm 14.2 8.0 10.0 76 2.2 W 33 44 18 24 1012.5 1012.5 0.0
15/01:30pm 15.9 9.5 8.6 62 3.7 WNW 32 44 17 24 1012.4 1012.4 0.0
15/01:00pm 16.2 9.1 7.9 58 4.2 WNW 35 46 19 25 1012.4 1012.4 0.0
15/12:30pm 16.7 11.5 10.3 66 3.4 WNW 28 37 15 20 1012.8 1012.8 0.0
15/12:05pm 16.1 9.8 9.8 66 3.3 WNW 33 52 18 28 1013.0 1013.0 0.0
15/12:00pm 16.7 10.7 10.8 68 3.2 WNW 33 48 18 26 1013.0 1013.0 0.0
15/11:30am 16.5 11.4 10.6 68 3.1 NW 28 39 15 21 1013.1 1013.1 0.0
15/11:00am 15.6 10.3 9.9 69 3.0 NW 28 43 15 23 1013.3 1013.3 0.0
15/10:30am 15.4 10.4 10.8 74 2.4 NW 28 37 15 20 1013.4 1013.4 0.0
15/10:00am 14.9 11.3 10.5 75 2.3 NW 20 30 11 16 1013.2 1013.2 0.0
15/09:30am 14.2 10.3 9.6 74 2.4 NW 20 30 11 16 1013.4 1013.4 0.0
15/09:00am 13.8 9.7 8.8 72 2.5 NW 20 30 11 16 1013.4 1013.4 0.2
15/08:30am 13.6 9.3 8.0 69 2.8 NW 20 28 11 15 1013.4 1013.4 0.2
15/08:00am 12.8 8.8 6.8 67 2.9 NNW 17 24 9 13 1013.4 1013.4 0.2
15/07:30am 12.7 8.7 6.5 66 3.0 NNW 17 24 9 13 1013.1 1013.1 0.2
15/07:00am 12.7 8.9 5.6 62 3.3 NNW 15 22 8 12 1012.7 1012.7 0.2
15/06:30am 12.8 8.0 5.5 61 3.4 N 20 26 11 14 1012.3 1012.3 0.2
15/06:00am 12.9 8.0 5.3 60 3.5 N 20 28 11 15 1012.3 1012.3 0.2
15/05:30am 12.9 8.2 5.1 59 3.6 N 19 24 10 13 1012.5 1012.5 0.2
15/05:00am 13.0 7.8 5.4 60 3.5 N 22 30 12 16 1012.1 1012.1 0.2
15/04:30am 13.2 8.4 5.4 59 3.6 NNW 20 26 11 14 1012.3 1012.3 0.2
15/04:00am 13.5 8.6 5.2 57 3.9 NNW 20 28 11 15 1012.3 1012.3 0.2
15/03:30am 13.9 8.4 4.2 52 4.4 NNW 22 32 12 17 1012.4 1012.4 0.2
15/03:00am 14.1 9.9 3.6 49 4.8 NW 15 26 8 14 1013.0 1013.0 0.2
15/02:30am 13.9 9.6 3.4 49 4.7 NNW 15 20 8 11 1013.0 1013.0 0.2
15/02:00am 13.5 10.0 3.3 50 4.6 NNW 11 17 6 9 1013.2 1013.2 0.2
15/01:30am 12.7 10.2 3.6 54 4.1 NW 6 15 3 8 1013.4 1013.4 0.2
15/01:00am 12.9 9.1 3.8 54 4.1 N 13 17 7 9 1013.0 1013.0 0.2
15/12:30am 12.8 8.2 3.7 54 4.1 N 17 24 9 13 1012.9 1012.9 0.2
15/12:00am 12.8 7.5 3.2 52 4.3 N 20 26 11 14 1013.1 1013.1 0.2
 
Date/Time
CST
Temp
°C
App
Temp
°C
Dew
Point
°C
Rel
Hum
%
Delta-T
°C
Wind Press
QNH
hPa
Press
MSL
hPa
Rain since
9am
mm
Dir  Spd
km/h
Gust
km/h
Spd
kts
Gust
kts
14/11:30pm 13.3 7.3 3.1 50 4.5 N 24 32 13 17 1013.0 1013.0 0.2
14/11:00pm 12.8 7.2 3.7 54 4.1 N 22 32 12 17 1013.1 1013.1 0.2
14/10:30pm 11.9 6.8 4.2 59 3.5 NNE 20 24 11 13 1013.7 1013.7 0.2
14/10:00pm 12.0 6.9 4.2 59 3.5 NNE 20 26 11 14 1013.9 1013.9 0.2
14/09:30pm 11.9 7.5 4.9 62 3.2 NNE 17 22 9 12 1014.0 1014.0 0.2
14/09:00pm 11.8 7.1 5.0 63 3.1 NNE 19 24 10 13 1014.3 1014.3 0.2
14/08:30pm 12.4 7.6 4.9 60 3.4 N 19 28 10 15 1014.4 1014.4 0.2
14/08:00pm 13.1 8.2 5.3 59 3.6 N 20 24 11 13 1014.3 1014.3 0.2
14/07:30pm 13.5 7.9 5.4 58 3.8 NNE 24 32 13 17 1014.2 1014.2 0.2
14/07:00pm 14.1 9.4 6.0 58 3.9 NNE 20 26 11 14 1014.8 1014.8 0.2
14/06:30pm 14.6 9.8 5.7 55 4.2 N 20 26 11 14 1014.9 1014.9 0.2
14/06:00pm 15.2 10.4 5.4 52 4.6 N 20 26 11 14 1015.2 1015.2 0.2
14/05:30pm 16.2 11.6 5.8 50 5.0 N 19 28 10 15 1015.4 1015.4 0.2
14/05:00pm 16.8 11.7 6.0 49 5.3 N 22 33 12 18 1015.4 1015.4 0.2
14/04:30pm 17.6 10.4 5.2 44 6.0 N 32 41 17 22 1015.8 1015.8 0.2
14/04:00pm 18.0 11.7 5.9 45 5.9 NNW 28 39 15 21 1016.1 1016.1 0.2
14/03:30pm 18.1 11.9 6.0 45 5.9 NNW 28 39 15 21 1016.8 1016.9 0.2
14/03:17pm 18.0 11.4 5.9 45 5.9 NNW 30 48 16 26 1017.2 1017.3 0.2
14/03:00pm 18.3 12.2 6.5 46 5.8 NNW 28 39 15 21 1017.3 1017.4 0.2
14/02:30pm 18.3 12.9 6.5 46 5.8 NNW 24 35 13 19 1017.7 1017.8 0.2
14/02:00pm 17.9 11.4 6.4 47 5.7 NNW 30 43 16 23 1018.3 1018.4 0.2
14/01:30pm 17.5 11.7 7.8 53 4.9 NNW 28 39 15 21 1019.1 1019.2 0.2
14/01:00pm 17.5 11.5 7.0 50 5.2 NNW 28 39 15 21 1019.7 1019.8 0.2
14/12:30pm 17.2 12.8 8.9 58 4.3 N 22 30 12 16 1020.3 1020.4 0.2
14/12:00pm 16.3 12.2 8.8 61 3.8 NNW 20 32 11 17 1021.3 1021.4 0.2
14/11:30am 15.6 10.9 7.6 59 4.0 N 22 37 12 20 1022.3 1022.3 0.0
14/11:00am 15.2 10.2 8.2 63 3.5 N 24 33 13 18 1023.0 1023.0 0.0
14/10:30am 14.2 8.9 7.0 62 3.5 N 24 35 13 19 1023.6 1023.6 0.0
14/10:00am 13.7 9.6 7.9 68 2.9 N 19 26 10 14 1024.0 1024.0 0.0
14/09:30am 12.3 7.8 6.8 69 2.6 N 20 30 11 16 1024.3 1024.3 0.0
14/09:00am 11.7 7.4 7.0 73 2.2 N 19 26 10 14 1024.6 1024.6 0.0
14/08:30am 10.9 6.6 7.2 78 1.8 NNE 19 24 10 13 1024.7 1024.7 0.0
14/08:00am 9.6 5.7 7.2 85 1.1 NNE 17 20 9 11 1024.6 1024.6 0.0
14/07:30am 7.2 3.9 6.6 96 0.3 NNE 13 15 7 8 1024.8 1024.8 0.0
14/07:00am 6.5 3.0 5.6 94 0.4 NNE 13 15 7 8 1025.0 1025.0 0.0
14/06:30am 6.9 3.5 5.8 93 0.5 NNE 13 17 7 9 1024.9 1024.9 0.0
14/06:00am 7.5 3.9 6.8 95 0.3 NNE 15 19 8 10 1025.0 1025.0 0.0
14/05:30am 7.6 4.1 7.0 96 0.3 NNE 15 20 8 11 1024.9 1024.9 0.0
14/05:00am 6.5 3.2 6.5 100 0.0 NNE 13 15 7 8 1024.9 1024.9 0.0
14/04:30am 6.2 3.2 6.2 100 0.0 NNE 11 13 6 7 1025.2 1025.2 0.0
14/04:00am 5.2 2.0 5.2 100 0.0 NE 11 13 6 7 1025.2 1025.2 0.0
14/03:30am 5.8 2.4 5.8 100 0.0 NE 13 13 7 7 1025.5 1025.5 0.0
14/03:00am 6.0 3.4 6.0 100 0.0 NNE 9 11 5 6 1026.0 1026.0 0.0
14/02:30am 5.6 2.9 5.6 100 0.0 NE 9 9 5 5 1026.4 1026.4 0.0
14/02:00am 6.8 4.7 6.8 100 0.0 NNE 7 9 4 5 1026.7 1026.7 0.0
14/01:30am 6.8 4.4 6.8 100 0.0 NNE 9 9 5 5 1027.1 1027.1 0.0
14/01:00am 7.5 5.2 7.5 100 0.0 NE 9 9 5 5 1027.4 1027.4 0.0
14/12:30am 7.8 6.0 7.8 100 0.0 NE 7 9 4 5 1027.7 1027.7 0.0
14/12:00am 7.3 5.3 7.0 98 0.1 NNE 7 9 4 5 1027.7 1027.7 0.0
 
Date/Time
CST
Temp
°C
App
Temp
°C
Dew
Point
°C
Rel
Hum
%
Delta-T
°C
Wind Press
QNH
hPa
Press
MSL
hPa
Rain since
9am
mm
Dir  Spd
km/h
Gust
km/h
Spd
kts
Gust
kts
13/11:30pm 8.4 5.5 8.3 99 0.0 NNE 13 17 7 9 1028.0 1028.0 0.0
13/11:00pm 7.8 4.4 7.5 98 0.1 N 15 17 8 9 1028.2 1028.2 0.0
13/10:30pm 7.6 5.2 6.9 95 0.3 NNE 9 17 5 9 1028.3 1028.3 0.0
13/10:00pm 9.2 7.3 7.5 89 0.8 NE 7 9 4 5 1028.6 1028.6 0.0
13/09:30pm 10.9 9.7 8.0 82 1.4 NW 4 6 2 3 1028.9 1028.9 0.0
13/09:00pm 12.0 10.0 8.5 79 1.7 NNW 9 11 5 6 1029.0 1029.0 0.0
13/08:30pm 12.0 10.0 8.7 80 1.6 NNW 9 11 5 6 1029.0 1029.0 0.0
13/08:00pm 11.9 10.0 8.9 82 1.5 NW 9 13 5 7 1028.8 1028.8 0.0
13/07:30pm 11.8 9.9 9.0 83 1.4 NNW 9 11 5 6 1028.6 1028.6 0.0
13/07:00pm 12.2 10.3 9.0 81 1.6 W 9 11 5 6 1028.5 1028.5 0.0
13/06:30pm 12.5 10.1 8.8 78 1.8 NW 11 11 6 6 1028.3 1028.3 0.0
13/06:00pm 13.1 10.4 8.8 75 2.1 NW 13 15 7 8 1028.2 1028.2 0.0
13/05:30pm 13.4 11.0 8.7 73 2.3 NW 11 17 6 9 1028.2 1028.2 0.0
13/05:00pm 13.8 11.1 8.8 72 2.5 NW 13 19 7 10 1028.2 1028.2 0.0
13/04:30pm 14.2 11.0 8.4 68 2.9 WNW 15 19 8 10 1028.3 1028.3 0.0
13/04:00pm 14.5 11.4 8.7 68 2.9 WNW 15 19 8 10 1028.5 1028.5 0.0
13/03:30pm 14.6 11.5 9.0 69 2.8 NW 15 20 8 11 1028.6 1028.6 0.0
13/03:00pm 14.5 11.3 8.5 67 3.0 WNW 15 20 8 11 1028.6 1028.6 0.0
13/02:30pm 14.6 11.0 8.5 67 3.1 WNW 17 22 9 12 1028.6 1028.6 0.0
13/02:00pm 14.4 10.7 8.1 66 3.1 WNW 17 24 9 13 1028.6 1028.6 0.0
13/01:30pm 14.4 10.9 8.6 68 2.9 WNW 17 22 9 12 1028.7 1028.7 0.0
13/01:00pm 14.1 10.2 8.7 70 2.7 WNW 19 26 10 14 1029.1 1029.1 0.0
13/12:30pm 13.8 10.2 8.2 69 2.8 WNW 17 24 9 13 1029.7 1029.7 0.0
13/12:00pm 13.8 9.9 8.6 71 2.6 WNW 19 24 10 13 1030.2 1030.2 0.0
13/11:30am 13.8 9.7 8.6 71 2.6 WNW 20 26 11 14 1030.5 1030.5 0.0
13/11:00am 13.6 9.4 8.2 70 2.7 WNW 20 30 11 16 1030.7 1030.7 0.0
13/10:30am 13.2 9.3 8.5 73 2.3 WNW 19 24 10 13 1030.6 1030.6 0.0
13/10:00am 12.7 10.0 9.0 78 1.9 WNW 13 20 7 11 1030.6 1030.6 0.0
13/09:30am 12.5 9.6 9.7 83 1.4 W 15 20 8 11 1030.7 1030.7 0.0
13/09:00am 11.9 9.4 9.8 87 1.1 W 13 20 7 11 1030.4 1030.4 0.6
13/08:30am 11.6 10.8 11.1 97 0.3 SW 6 7 3 4 1030.2 1030.2 0.6
13/08:00am 11.0 9.9 10.8 99 0.1 SW 7 11 4 6 1030.0 1030.0 0.6
13/07:30am 10.5 8.9 10.3 99 0.1 SW 9 13 5 7 1029.6 1029.6 0.6
13/07:00am 10.5 9.0 10.5 100 0.0 SW 9 15 5 8 1029.3 1029.3 0.6
13/06:30am 10.2 8.1 9.9 98 0.1 W 11 13 6 7 1029.0 1029.0 0.6

Latest Capital City Observations: Canberra | Sydney | Melbourne | Brisbane | Adelaide | Perth | Hobart | Darwin

Other Formats:

Comma delimited format used in spreadsheet applications
http://www.bom.gov.au/fwo/IDS60901/IDS60901.95677.axf

JavaScript Object Notation format (JSON) in row-major order
http://www.bom.gov.au/fwo/IDS60901/IDS60901.95677.json